This is the latest recevied weather packets stored in our database for station/object M8FSI-13. If no packets are shown the sender has not sent any weather packets the latest 10 day(s).
| Time | Temp. | Humidity | Pressure | Rain* | Wind** | Luminosity | Snow |
|---|---|---|---|---|---|---|---|
| 1777573519 | 20° C | 32% | 1020.2 hPa | 0 mm | - | - | - |
| 1777571735 | 20.56° C | 30% | 1020.1 hPa | 0 mm | - | - | - |
| 1777569936 | 20.56° C | 29% | 1019.7 hPa | 0 mm | - | - | - |
| 1777565755 | 21.11° C | 28% | 1020.1 hPa | 0 mm | - | - | - |
| 1777564520 | 21.11° C | 29% | 1020.3 hPa | 0 mm | - | - | - |
| 1777563321 | 21.11° C | 27% | 1020.5 hPa | 0 mm | - | - | - |
| 1777561535 | 20.56° C | 27% | 1020.4 hPa | 0 mm | - | - | - |
| 1777559736 | 20.56° C | 28% | 1020.2 hPa | 0 mm | - | - | - |
| 1777554940 | 19.44° C | 32% | 1021 hPa | 0 mm | - | - | - |
| 1777554320 | 19.44° C | 33% | 1020.9 hPa | 0 mm | - | - | - |
| 1777553135 | 19.44° C | 31% | 1021.1 hPa | 0 mm | - | - | - |
| 1777547719 | 18.33° C | 36% | 1021.9 hPa | 0 mm | - | - | - |
| 1777547141 | 18.33° C | 36% | 1021.8 hPa | 0 mm | - | - | - |
| 1777542920 | 17.22° C | 37% | 1022 hPa | 0 mm | - | - | - |
| 1777533359 | 14.44° C | 45% | 1021.8 hPa | 0 mm | - | - | - |
| 1777532119 | 13.89° C | 47% | 1021.7 hPa | 0 mm | - | - | - |
| 1777529134 | 12.78° C | 51% | 1021.9 hPa | 0 mm | - | - | - |
| 1777527335 | 12.22° C | 53% | 1021.7 hPa | 0 mm | - | - | - |
| 1777526139 | 11.67° C | 54% | 1021.7 hPa | 0 mm | - | - | - |
| 1777520755 | 11.67° C | 53% | 1021.5 hPa | 0 mm | - | - | - |
| 1777517719 | 11.67° C | 53% | 1021.7 hPa | 0 mm | - | - | - |
| 1777513539 | 12.22° C | 53% | 1021.5 hPa | 0 mm | - | - | - |
| 1777504519 | 13.33° C | 51% | 1021.8 hPa | 0 mm | - | - | - |
| 1777503924 | 13.33° C | 51% | 1021.7 hPa | 0 mm | - | - | - |
| 1777497333 | 12.78° C | 57% | 1021.7 hPa | 0 mm | - | - | - |
* Rain latest hour (hover to see other rain measurements)
** Current wind speed in m/s (hover to see current wind gust speed)